createdAt,value
2023-03-12T00:00:48.902Z,97511.22
2023-03-12T00:03:17.541Z,97509.13
2023-03-12T00:05:46.459Z,97511.63
2023-03-12T00:08:14.683Z,97515.44
2023-03-12T00:10:43.742Z,97520.16
2023-03-12T00:13:13.222Z,97531.75
2023-03-12T00:15:41.385Z,97533.06
2023-03-12T00:18:09.491Z,97542.53
2023-03-12T00:20:37.582Z,97539.66
2023-03-12T00:23:05.800Z,97541.84
2023-03-12T00:25:34.019Z,97537.53
2023-03-12T00:28:02.168Z,97550.94
2023-03-12T00:30:32.008Z,97544.75
2023-03-12T00:33:00.219Z,97545.34
2023-03-12T00:35:28.263Z,97550.84
2023-03-12T00:37:56.388Z,97557.63
2023-03-12T00:40:24.387Z,97555.00
2023-03-12T00:42:52.625Z,97564.31
2023-03-12T00:45:20.679Z,97558.75
2023-03-12T00:47:50.233Z,97566.72
2023-03-12T00:50:18.584Z,97560.50
2023-03-12T00:52:46.663Z,97550.00
2023-03-12T00:55:14.934Z,97573.66
2023-03-12T00:57:43.095Z,97566.25
2023-03-12T01:00:13.547Z,97570.03
2023-03-12T01:02:42.509Z,97559.03
2023-03-12T01:05:14.086Z,97564.91
2023-03-12T01:07:42.302Z,97567.16
2023-03-12T01:10:13.236Z,97566.28
2023-03-12T01:12:41.380Z,97580.88
2023-03-12T01:15:11.454Z,97569.47
2023-03-12T01:17:39.517Z,97587.50
2023-03-12T01:20:09.483Z,97580.56
2023-03-12T01:22:39.786Z,97582.25
2023-03-12T01:25:08.752Z,97589.38
2023-03-12T01:27:36.951Z,97579.97
2023-03-12T01:30:06.262Z,97576.03
2023-03-12T01:32:34.374Z,97580.44
2023-03-12T01:35:02.669Z,97578.66
2023-03-12T01:37:30.766Z,97578.88
2023-03-12T01:40:00.607Z,97571.16
2023-03-12T01:42:28.835Z,97574.97
2023-03-12T01:44:59.072Z,97576.53
2023-03-12T01:47:28.816Z,97575.59
2023-03-12T01:49:57.250Z,97568.28
2023-03-12T01:52:28.836Z,97571.06
2023-03-12T01:55:02.851Z,97569.50
2023-03-12T01:57:38.912Z,97590.13
2023-03-12T02:00:12.004Z,97586.81
2023-03-12T02:02:45.768Z,97590.47
2023-03-12T02:05:26.494Z,97584.84
2023-03-12T02:07:56.181Z,97587.53
2023-03-12T02:10:26.604Z,97591.59
2023-03-12T02:12:54.954Z,97590.50
2023-03-12T02:15:23.911Z,97598.19
2023-03-12T02:17:52.000Z,97602.06
2023-03-12T02:20:26.266Z,97597.81
2023-03-12T02:23:03.984Z,97605.59
2023-03-12T02:25:38.708Z,97616.94
2023-03-12T02:28:10.429Z,97606.88
2023-03-12T02:30:42.854Z,97613.94
2023-03-12T02:33:12.813Z,97618.47
2023-03-12T02:35:40.983Z,97618.88
2023-03-12T02:38:33.858Z,97626.44
2023-03-12T02:41:06.893Z,97632.16
2023-03-12T02:43:35.078Z,97620.47
2023-03-12T02:46:03.298Z,97619.28
2023-03-12T02:48:31.540Z,97629.75
2023-03-12T02:50:59.554Z,97639.78
2023-03-12T02:53:27.948Z,97642.22
2023-03-12T02:55:56.071Z,97659.97
2023-03-12T02:58:26.002Z,97643.03
2023-03-12T03:00:54.371Z,97645.06
2023-03-12T03:03:22.550Z,97654.13
2023-03-12T03:05:51.906Z,97653.94
2023-03-12T03:08:19.994Z,97650.25
2023-03-12T03:10:48.147Z,97655.31
2023-03-12T03:13:16.453Z,97653.53
2023-03-12T03:15:45.949Z,97660.81
2023-03-12T03:18:14.224Z,97666.72
2023-03-12T03:20:43.625Z,97664.88
2023-03-12T03:23:12.002Z,97690.50
2023-03-12T03:25:40.256Z,97674.22
2023-03-12T03:28:08.366Z,97664.44
2023-03-12T03:30:36.730Z,97672.94
2023-03-12T03:33:07.690Z,97676.50
2023-03-12T03:35:35.892Z,97676.66
2023-03-12T03:38:04.514Z,97682.75
2023-03-12T03:40:32.680Z,97679.75
2023-03-12T03:43:00.740Z,97689.50
2023-03-12T03:45:28.986Z,97683.53
2023-03-12T03:47:57.082Z,97702.69
2023-03-12T03:50:26.464Z,97715.59
2023-03-12T03:52:54.675Z,97688.16
2023-03-12T03:55:25.075Z,97694.06
2023-03-12T03:57:53.251Z,97693.78
2023-03-12T04:00:22.002Z,97704.22
2023-03-12T04:02:52.893Z,97703.44
2023-03-12T04:05:21.092Z,97706.44
2023-03-12T04:07:53.899Z,97711.16
2023-03-12T04:10:26.075Z,97721.84
2023-03-12T04:12:54.533Z,97721.84
2023-03-12T04:15:22.752Z,97717.81
2023-03-12T04:17:51.269Z,97716.97
2023-03-12T04:20:20.197Z,97707.91
2023-03-12T04:22:48.382Z,97716.94
2023-03-12T04:25:19.494Z,97715.16
2023-03-12T04:27:47.631Z,97726.72
2023-03-12T04:30:16.161Z,97725.53
2023-03-12T04:32:45.853Z,97736.72
2023-03-12T04:35:14.416Z,97726.22
2023-03-12T04:37:42.570Z,97727.00
2023-03-12T04:40:13.073Z,97731.97
2023-03-12T04:42:42.673Z,97722.47
2023-03-12T04:45:18.539Z,97730.09
2023-03-12T04:47:48.042Z,97745.69
2023-03-12T04:50:16.667Z,97737.13
2023-03-12T04:52:44.992Z,97731.00
2023-03-12T04:55:13.383Z,97742.56
2023-03-12T04:57:42.975Z,97745.75
2023-03-12T05:00:13.378Z,97741.03
2023-03-12T05:02:43.333Z,97743.94
2023-03-12T05:05:12.594Z,97754.91
2023-03-12T05:07:41.310Z,97742.16
2023-03-12T05:10:10.649Z,97755.72
2023-03-12T05:12:39.122Z,97746.91
2023-03-12T05:15:10.316Z,97744.16
2023-03-12T05:17:38.568Z,97741.63
2023-03-12T05:20:08.342Z,97749.03
2023-03-12T05:22:36.966Z,97748.19
2023-03-12T05:25:06.177Z,97753.06
2023-03-12T05:27:35.165Z,97762.41
2023-03-12T05:30:04.353Z,97761.09
2023-03-12T05:32:34.394Z,97768.25
2023-03-12T05:35:02.627Z,97755.34
2023-03-12T05:37:30.793Z,97758.91
2023-03-12T05:40:00.764Z,97771.66
2023-03-12T05:42:29.622Z,97771.19
2023-03-12T05:44:59.393Z,97784.06
2023-03-12T05:47:28.031Z,97789.16
2023-03-12T05:49:57.535Z,97800.75
2023-03-12T05:52:25.675Z,97804.41
2023-03-12T05:54:54.284Z,97789.66
2023-03-12T05:57:22.425Z,97785.69
2023-03-12T05:59:51.061Z,97791.41
2023-03-12T06:02:19.418Z,97798.63
2023-03-12T06:04:47.501Z,97801.75
2023-03-12T06:07:17.093Z,97801.69
2023-03-12T06:09:45.641Z,97803.78
2023-03-12T06:12:14.861Z,97812.66
2023-03-12T06:14:43.192Z,97806.31
2023-03-12T06:17:11.199Z,97816.28
2023-03-12T06:19:39.453Z,97818.84
2023-03-12T06:22:07.506Z,97825.97
2023-03-12T06:24:37.192Z,97820.31
2023-03-12T06:27:07.568Z,97818.16
2023-03-12T06:29:35.786Z,97820.94
2023-03-12T06:32:03.828Z,97819.69
2023-03-12T06:34:32.049Z,97820.94
2023-03-12T06:37:00.349Z,97823.72
2023-03-12T06:39:30.008Z,97843.41
2023-03-12T06:41:59.421Z,97832.19
2023-03-12T06:44:27.525Z,97832.84
2023-03-12T06:46:55.558Z,97824.81
2023-03-12T06:49:23.896Z,97836.50
2023-03-12T06:51:52.016Z,97835.88
2023-03-12T06:54:20.087Z,97833.03
2023-03-12T06:56:48.115Z,97828.09
2023-03-12T06:59:18.468Z,97823.59
2023-03-12T07:01:46.656Z,97855.41
2023-03-12T07:04:14.734Z,97867.31
2023-03-12T07:06:43.051Z,97854.19
2023-03-12T07:09:11.274Z,97862.00
2023-03-12T07:11:39.378Z,97861.03
2023-03-12T07:14:07.407Z,97865.22
2023-03-12T07:16:36.970Z,97862.59
2023-03-12T07:19:05.174Z,97868.72
2023-03-12T07:21:33.199Z,97852.91
2023-03-12T07:24:06.816Z,97863.91
2023-03-12T07:26:36.311Z,97862.75
2023-03-12T07:29:05.200Z,97864.75
2023-03-12T07:31:33.306Z,97858.28
2023-03-12T07:34:03.167Z,97852.88
2023-03-12T07:36:31.683Z,97852.34
2023-03-12T07:38:59.811Z,97851.81
2023-03-12T07:41:28.062Z,97848.84
2023-03-12T07:43:56.190Z,97851.00
2023-03-12T07:46:30.337Z,97848.91
2023-03-12T07:49:02.779Z,97845.94
2023-03-12T07:51:31.210Z,97857.91
2023-03-12T07:53:59.237Z,97868.03
2023-03-12T07:56:27.540Z,97851.50
2023-03-12T07:58:56.353Z,97857.22
2023-03-12T08:01:25.570Z,97864.97
2023-03-12T08:03:53.578Z,97835.09
2023-03-12T08:06:23.147Z,97858.91
2023-03-12T08:08:51.382Z,97865.59
2023-03-12T08:11:19.806Z,97860.19
2023-03-12T08:13:48.692Z,97853.84
2023-03-12T08:16:16.826Z,97866.16
2023-03-12T08:18:45.358Z,97853.91
2023-03-12T08:21:16.466Z,97840.97
2023-03-12T08:23:46.414Z,97855.34
2023-03-12T08:26:14.721Z,97845.94
2023-03-12T08:28:42.907Z,97838.03
2023-03-12T08:31:11.051Z,97846.34
2023-03-12T08:33:43.453Z,97828.28
2023-03-12T08:36:12.014Z,97854.59
2023-03-12T08:38:40.383Z,97869.03
2023-03-12T08:41:10.391Z,97859.22
2023-03-12T08:43:38.604Z,97871.22
2023-03-12T08:46:06.725Z,97877.44
2023-03-12T08:48:34.928Z,97912.66
2023-03-12T08:51:04.450Z,97899.22
2023-03-12T08:53:34.031Z,97885.72
2023-03-12T08:56:03.097Z,97880.69
2023-03-12T08:58:33.254Z,97886.09
2023-03-12T09:01:01.398Z,97901.75
2023-03-12T09:03:29.470Z,97880.28
2023-03-12T09:06:05.282Z,97912.72
2023-03-12T09:08:34.235Z,97877.47
2023-03-12T09:11:03.066Z,97901.97
2023-03-12T09:13:54.257Z,97878.97
2023-03-12T09:16:20.982Z,97912.06
2023-03-12T09:18:49.373Z,97875.22
2023-03-12T09:21:17.912Z,97908.44
2023-03-12T09:23:45.974Z,97874.00
2023-03-12T09:26:14.825Z,97887.78
2023-03-12T09:28:45.031Z,97918.91
2023-03-12T09:31:13.358Z,97916.22
2023-03-12T09:33:41.457Z,97889.31
2023-03-12T09:36:10.065Z,97889.59
2023-03-12T09:38:38.284Z,97905.66
2023-03-12T09:41:07.493Z,97893.78
2023-03-12T09:43:40.237Z,97915.09
2023-03-12T09:46:17.062Z,97899.13
2023-03-12T09:48:47.722Z,97902.59
2023-03-12T09:51:21.438Z,97907.13
2023-03-12T09:53:53.112Z,97899.13
2023-03-12T09:56:23.392Z,97895.47
2023-03-12T09:58:54.710Z,97907.28
2023-03-12T10:01:36.534Z,97888.31
2023-03-12T10:04:17.483Z,97880.38
2023-03-12T10:06:53.280Z,97884.28
2023-03-12T10:09:37.708Z,97876.03
2023-03-12T10:12:15.157Z,97888.88
2023-03-12T10:15:02.903Z,97880.31
2023-03-12T10:17:43.728Z,97881.88
2023-03-12T10:20:44.046Z,97857.25
2023-03-12T10:23:20.275Z,97888.31
2023-03-12T10:25:54.364Z,97865.31
2023-03-12T10:28:34.153Z,97881.50
2023-03-12T10:31:06.366Z,97861.19
2023-03-12T10:33:44.178Z,97858.38
2023-03-12T10:36:19.606Z,97863.22
2023-03-12T10:38:49.468Z,97893.66
2023-03-12T10:41:25.492Z,97881.63
2023-03-12T10:43:54.098Z,97873.69
2023-03-12T10:46:47.047Z,97888.66
2023-03-12T10:49:29.235Z,97870.38
2023-03-12T10:51:59.485Z,97879.81
2023-03-12T10:54:36.871Z,97870.00
2023-03-12T10:57:06.305Z,97871.88
2023-03-12T10:59:37.329Z,97877.13
2023-03-12T11:02:31.022Z,97897.03
2023-03-12T11:05:02.130Z,97891.16
2023-03-12T11:07:32.730Z,97900.00
2023-03-12T11:10:23.196Z,97900.53
2023-03-12T11:12:57.982Z,97899.50
2023-03-12T11:15:28.227Z,97912.41
2023-03-12T11:18:20.407Z,97917.63
2023-03-12T11:20:53.093Z,97887.50
2023-03-12T11:23:24.190Z,97923.63
2023-03-12T11:25:55.778Z,97891.00
2023-03-12T11:28:27.052Z,97901.94
2023-03-12T11:30:59.489Z,97904.56
2023-03-12T11:33:27.794Z,97908.06
2023-03-12T11:36:15.594Z,97902.50
2023-03-12T11:38:51.203Z,97890.84
2023-03-12T11:41:35.107Z,97890.31
2023-03-12T11:44:20.789Z,97889.22
2023-03-12T11:47:07.481Z,97886.94
2023-03-12T11:49:52.620Z,97889.06
2023-03-12T11:52:32.562Z,97900.22
2023-03-12T11:55:17.268Z,97904.34
2023-03-12T11:58:00.494Z,97899.63
2023-03-12T12:00:36.152Z,97895.81
2023-03-12T12:03:31.677Z,97964.16
2023-03-12T12:06:05.722Z,97894.75
2023-03-12T12:09:00.257Z,97909.69
2023-03-12T12:11:39.176Z,97897.50
2023-03-12T12:14:21.010Z,97897.97
2023-03-12T12:17:03.503Z,97881.22
2023-03-12T12:19:45.795Z,97889.75
2023-03-12T12:22:31.186Z,97884.44
2023-03-12T12:25:18.264Z,97902.31
2023-03-12T12:27:57.197Z,97890.38
2023-03-12T12:30:35.698Z,97885.25
2023-03-12T12:33:18.565Z,97889.41
2023-03-12T12:35:47.151Z,97905.75
2023-03-12T12:38:22.837Z,97901.13
2023-03-12T12:40:55.009Z,97899.63
2023-03-12T12:43:29.147Z,97895.06
2023-03-12T12:46:02.262Z,97902.03
2023-03-12T12:48:36.372Z,97901.69
2023-03-12T12:51:08.832Z,97910.13
2023-03-12T12:53:43.841Z,97917.91
2023-03-12T12:56:20.649Z,97905.25
2023-03-12T12:59:25.267Z,97891.09
2023-03-12T13:01:57.143Z,97898.69
2023-03-12T13:04:29.457Z,97899.50
2023-03-12T13:07:01.752Z,97893.06
2023-03-12T13:09:41.505Z,97895.56
2023-03-12T13:12:16.800Z,97902.66
2023-03-12T13:14:46.206Z,97906.59
2023-03-12T13:17:27.369Z,97931.16
2023-03-12T13:20:01.980Z,97910.72
2023-03-12T13:22:51.058Z,97912.66
2023-03-12T13:25:30.141Z,97916.22
2023-03-12T13:28:00.976Z,97903.19
2023-03-12T13:30:47.038Z,97894.59
2023-03-12T13:33:18.303Z,97904.97
2023-03-12T13:36:04.737Z,97887.38
2023-03-12T13:38:37.834Z,97904.81
2023-03-12T13:41:08.188Z,97896.19
2023-03-12T13:43:52.065Z,97889.41
2023-03-12T13:46:35.026Z,97906.03
2023-03-12T13:49:11.308Z,97908.50
2023-03-12T13:51:46.376Z,97906.63
2023-03-12T13:54:19.624Z,97925.97
2023-03-12T13:56:56.252Z,97907.59
2023-03-12T13:59:27.613Z,97917.56
2023-03-12T14:01:59.264Z,97904.00
2023-03-12T14:04:35.095Z,97898.84
2023-03-12T14:07:29.910Z,97907.41
2023-03-12T14:10:09.872Z,97891.16
2023-03-12T14:12:48.567Z,97891.38
2023-03-12T14:15:31.506Z,97897.22
2023-03-12T14:18:03.705Z,97900.78
2023-03-12T14:20:32.689Z,97907.88
2023-03-12T14:23:05.530Z,97917.09
2023-03-12T14:25:37.510Z,97930.38
2023-03-12T14:28:12.617Z,97931.44
2023-03-12T14:30:51.400Z,97920.91
2023-03-12T14:33:20.301Z,97904.47
2023-03-12T14:35:53.998Z,97907.09
2023-03-12T14:38:30.355Z,97949.16
2023-03-12T14:41:13.403Z,97918.28
2023-03-12T14:43:55.176Z,97929.66
2023-03-12T14:46:26.246Z,97906.59
2023-03-12T14:48:56.229Z,97924.34
2023-03-12T14:51:27.100Z,97937.03
2023-03-12T14:53:56.140Z,97934.72
2023-03-12T14:56:29.466Z,97928.28
2023-03-12T14:58:59.526Z,97918.91
2023-03-12T15:01:32.058Z,97931.44
2023-03-12T15:04:02.654Z,97934.47
2023-03-12T15:06:32.883Z,97934.28
2023-03-12T15:09:04.390Z,97947.03
2023-03-12T15:11:34.582Z,97944.31
2023-03-12T15:14:06.188Z,97938.13
2023-03-12T15:16:37.081Z,97946.03
2023-03-12T15:19:05.947Z,97950.78
2023-03-12T15:21:35.759Z,97955.38
2023-03-12T15:24:04.951Z,97944.97
2023-03-12T15:26:36.496Z,97951.38
2023-03-12T15:29:17.928Z,97947.69
2023-03-12T15:31:49.501Z,97949.19
2023-03-12T15:34:32.096Z,97937.38
2023-03-12T15:37:01.907Z,97944.19
2023-03-12T15:39:33.819Z,97954.38
2023-03-12T15:42:08.424Z,97935.06
2023-03-12T15:44:47.202Z,97942.88
2023-03-12T15:47:19.673Z,97938.06
2023-03-12T15:49:52.934Z,97944.22
2023-03-12T15:52:30.776Z,97939.13
2023-03-12T15:55:09.216Z,97935.66
2023-03-12T15:57:46.744Z,97938.25
2023-03-12T16:00:20.419Z,97946.19
2023-03-12T16:02:53.161Z,97930.97
2023-03-12T16:05:22.888Z,97940.16
2023-03-12T16:07:51.415Z,97941.31
2023-03-12T16:10:21.960Z,97948.31
2023-03-12T16:12:52.025Z,97962.28
2023-03-12T16:15:24.946Z,97955.00
2023-03-12T16:17:54.488Z,97961.41
2023-03-12T16:20:22.580Z,97959.22
2023-03-12T16:22:50.932Z,97959.97
2023-03-12T16:25:18.982Z,97952.00
2023-03-12T16:27:50.074Z,97958.38
2023-03-12T16:30:21.939Z,97959.22
2023-03-12T16:32:50.488Z,97954.38
2023-03-12T16:35:21.830Z,97967.97
2023-03-12T16:37:50.248Z,97960.63
2023-03-12T16:40:32.532Z,97944.03
2023-03-12T16:43:03.942Z,97943.50
2023-03-12T16:45:35.002Z,97960.59
2023-03-12T16:48:04.985Z,97956.69
2023-03-12T16:50:34.604Z,97955.31
2023-03-12T16:53:04.962Z,97957.00
2023-03-12T16:55:45.546Z,97961.88
2023-03-12T16:58:15.969Z,97964.13
2023-03-12T17:00:44.596Z,97965.97
2023-03-12T17:03:20.095Z,97955.63
2023-03-12T17:05:49.600Z,97961.88
2023-03-12T17:08:17.848Z,97987.16
2023-03-12T17:10:46.073Z,97987.28
2023-03-12T17:13:20.975Z,97981.44
2023-03-12T17:15:49.438Z,97976.75
2023-03-12T17:18:18.121Z,97977.66
2023-03-12T17:20:46.847Z,97977.97
2023-03-12T17:23:16.787Z,97994.94
2023-03-12T17:25:45.809Z,97990.13
2023-03-12T17:28:15.444Z,97985.25
2023-03-12T17:30:44.884Z,97971.75
2023-03-12T17:33:16.304Z,97980.13
2023-03-12T17:35:44.912Z,97983.19
2023-03-12T17:38:16.044Z,97975.78
2023-03-12T17:40:45.294Z,97972.97
2023-03-12T17:43:13.425Z,97967.75
2023-03-12T17:45:42.214Z,97962.16
2023-03-12T17:48:10.379Z,97955.50
2023-03-12T17:50:38.631Z,97955.47
2023-03-12T17:53:06.751Z,97968.72
2023-03-12T17:55:36.978Z,97970.31
2023-03-12T17:58:06.195Z,97984.06
2023-03-12T18:00:34.482Z,97973.28
2023-03-12T18:03:03.528Z,97977.97
2023-03-12T18:05:31.723Z,97983.78
2023-03-12T18:07:59.830Z,97973.56
2023-03-12T18:10:27.893Z,97973.28
2023-03-12T18:12:57.405Z,97973.75
2023-03-12T18:15:25.468Z,97959.38
2023-03-12T18:17:56.561Z,97955.28
2023-03-12T18:20:36.117Z,97966.28
2023-03-12T18:23:06.237Z,97963.31
2023-03-12T18:25:34.264Z,97964.75
2023-03-12T18:28:03.825Z,97969.00
2023-03-12T18:30:32.129Z,97976.63
2023-03-12T18:33:00.309Z,97965.22
2023-03-12T18:35:30.440Z,97959.97
2023-03-12T18:37:59.450Z,97957.28
2023-03-12T18:40:29.111Z,97960.69
2023-03-12T18:42:58.990Z,97950.72
2023-03-12T18:45:29.318Z,97945.72
2023-03-12T18:48:00.118Z,97950.91
2023-03-12T18:50:28.710Z,97949.97
2023-03-12T18:52:59.125Z,97942.94
2023-03-12T18:55:27.488Z,97953.06
2023-03-12T18:57:55.540Z,97958.38
2023-03-12T19:00:23.753Z,97962.06
2023-03-12T19:02:53.305Z,97956.50
2023-03-12T19:05:21.481Z,97960.94
2023-03-12T19:07:49.706Z,97961.22
2023-03-12T19:10:17.829Z,97956.44
2023-03-12T19:12:52.863Z,97959.69
2023-03-12T19:15:24.128Z,97957.31
2023-03-12T19:17:55.486Z,97948.22
2023-03-12T19:20:25.119Z,97957.81
2023-03-12T19:22:53.353Z,97953.03
2023-03-12T19:25:21.620Z,97947.13
2023-03-12T19:27:49.740Z,97957.16
2023-03-12T19:30:18.226Z,97959.75
2023-03-12T19:32:46.533Z,97956.47
2023-03-12T19:35:16.464Z,97965.00
2023-03-12T19:37:44.760Z,97956.84
2023-03-12T19:40:14.369Z,97957.69
2023-03-12T19:42:42.560Z,97955.69
2023-03-12T19:45:13.951Z,97960.22
2023-03-12T19:47:42.350Z,97959.50
2023-03-12T19:50:12.988Z,97966.66
2023-03-12T19:52:42.606Z,97970.75
2023-03-12T19:55:12.020Z,97965.69
2023-03-12T19:57:40.317Z,97959.81
2023-03-12T20:00:10.755Z,97955.53
2023-03-12T20:02:39.911Z,97955.09
2023-03-12T20:05:09.092Z,97952.25
2023-03-12T20:07:37.352Z,97952.69
2023-03-12T20:10:09.988Z,97948.72
2023-03-12T20:12:38.401Z,97951.03
2023-03-12T20:15:07.847Z,97954.81
2023-03-12T20:17:36.012Z,97958.19
2023-03-12T20:20:05.951Z,97945.69
2023-03-12T20:22:36.386Z,97943.09
2023-03-12T20:25:04.637Z,97957.59
2023-03-12T20:27:35.196Z,97953.47
2023-03-12T20:30:03.837Z,97947.84
2023-03-12T20:32:32.080Z,97941.63
2023-03-12T20:35:00.363Z,97946.81
2023-03-12T20:37:28.463Z,97947.72
2023-03-12T20:39:56.656Z,97948.63
2023-03-12T20:42:24.812Z,97932.28
2023-03-12T20:44:54.352Z,97935.94
2023-03-12T20:47:23.591Z,97929.84
2023-03-12T20:49:51.727Z,97924.16
2023-03-12T20:52:19.844Z,97921.88
2023-03-12T20:54:47.995Z,97912.22
2023-03-12T20:57:16.219Z,97913.69
2023-03-12T20:59:44.259Z,97905.59
2023-03-12T21:02:15.678Z,97897.09
2023-03-12T21:04:44.686Z,97894.00
2023-03-12T21:07:12.732Z,97902.78
2023-03-12T21:09:40.943Z,97896.25
2023-03-12T21:12:08.992Z,97893.38
2023-03-12T21:14:39.904Z,97887.28
2023-03-12T21:17:09.058Z,97883.63
2023-03-12T21:19:38.548Z,97883.94
2023-03-12T21:22:06.652Z,97875.56
2023-03-12T21:24:34.924Z,97878.22
2023-03-12T21:27:03.612Z,97868.00
2023-03-12T21:29:31.749Z,97875.72
2023-03-12T21:32:00.051Z,97873.47
2023-03-12T21:34:30.814Z,97868.66
2023-03-12T21:37:00.404Z,97870.00
2023-03-12T21:39:28.449Z,97853.22
2023-03-12T21:41:56.599Z,97849.09
2023-03-12T21:44:24.696Z,97846.97
2023-03-12T21:46:52.897Z,97842.47
2023-03-12T21:49:21.111Z,97846.00
2023-03-12T21:51:49.388Z,97850.03
2023-03-12T21:54:18.793Z,97852.38
2023-03-12T21:56:46.933Z,97845.69
2023-03-12T21:59:14.971Z,97847.34
2023-03-12T22:01:43.137Z,97848.63
2023-03-12T22:04:11.244Z,97853.72
2023-03-12T22:06:39.428Z,97843.22
2023-03-12T22:09:07.455Z,97837.84
2023-03-12T22:11:36.985Z,97837.59
2023-03-12T22:14:05.242Z,97829.22
2023-03-12T22:16:33.484Z,97819.41
2023-03-12T22:19:01.690Z,97813.69
2023-03-12T22:21:30.009Z,97814.72
2023-03-12T22:23:58.397Z,97812.09
2023-03-12T22:26:26.735Z,97810.34
2023-03-12T22:28:58.104Z,97815.31
2023-03-12T22:31:28.223Z,97817.63
2023-03-12T22:33:57.755Z,97805.00
2023-03-12T22:36:25.787Z,97796.66
2023-03-12T22:38:54.213Z,97796.31
2023-03-12T22:41:24.368Z,97795.31
2023-03-12T22:43:54.010Z,97804.09
2023-03-12T22:46:25.669Z,97807.44
2023-03-12T22:48:55.602Z,97805.94
2023-03-12T22:51:23.897Z,97805.38
2023-03-12T22:53:51.988Z,97809.91
2023-03-12T22:56:20.459Z,97797.03
2023-03-12T22:58:48.938Z,97804.84
2023-03-12T23:01:18.883Z,97803.00
2023-03-12T23:03:48.772Z,97801.13
2023-03-12T23:06:19.170Z,97802.41
2023-03-12T23:08:48.137Z,97805.03
2023-03-12T23:11:16.688Z,97804.72
2023-03-12T23:13:46.072Z,97807.38
2023-03-12T23:16:15.847Z,97806.91
2023-03-12T23:18:44.672Z,97787.94
2023-03-12T23:21:16.092Z,97784.78
2023-03-12T23:23:45.042Z,97783.22
2023-03-12T23:26:16.250Z,97791.53
2023-03-12T23:28:44.635Z,97787.47
2023-03-12T23:31:12.736Z,97801.00
2023-03-12T23:33:41.256Z,97793.53
2023-03-12T23:36:11.822Z,97794.59
2023-03-12T23:38:41.787Z,97798.72
2023-03-12T23:41:13.452Z,97789.34
2023-03-12T23:43:41.822Z,97794.44
2023-03-12T23:46:11.520Z,97791.03
2023-03-12T23:48:40.585Z,97797.34
2023-03-12T23:51:10.714Z,97800.34
2023-03-12T23:53:40.114Z,97809.66
2023-03-12T23:56:11.981Z,97804.75
2023-03-12T23:58:40.449Z,97795.78
